| time (UTC) | temp C | wind direction | speed KPH | gust KPH | rain 1hr cm | rain 24hr cm | rain mn cm | humidity % | barometer mb |
| 20260510130045 | 6 | 277 | 11.3 | 16.1 | 0.00 | 0.23 | 0.00 | 71 | 1015.4 |
| 20260510124547 | 6 | 285 | 11.3 | 17.7 | 0.00 | 0.23 | 0.00 | 73 | 1015.2 |
| 20260510123042 | 6 | 309 | 12.9 | 17.7 | 0.00 | 0.23 | 0.00 | 72 | 1015.1 |
| 20260510121541 | 6 | 304 | 12.9 | 19.3 | 0.00 | 0.23 | 0.00 | 75 | 1015.0 |
| 20260510120038 | 6 | 298 | 14.5 | 19.3 | 0.00 | 0.23 | 0.00 | 77 | 1014.8 |
| 20260510114536 | 6 | 285 | 11.3 | 16.1 | 0.00 | 0.23 | 0.00 | 79 | 1014.7 |
| 20260510113040 | 6 | 283 | 12.9 | 19.3 | 0.00 | 0.23 | 0.00 | 83 | 1014.4 |
| 20260510111533 | 6 | 290 | 11.3 | 17.7 | 0.00 | 0.23 | 0.00 | 81 | 1014.2 |
| 20260510110044 | 6 | 270 | 11.3 | 16.1 | 0.00 | 0.23 | 0.00 | 82 | 1014.0 |
| 20260510104531 | 6 | 277 | 11.3 | 17.7 | 0.00 | 0.23 | 0.00 | 83 | 1013.8 |
| 20260510103025 | 6 | 308 | 14.5 | 20.9 | 0.00 | 0.23 | 0.00 | 80 | 1013.5 |
| 20260510101524 | 6 | 331 | 16.1 | 20.9 | 0.00 | 0.23 | 0.00 | 77 | 1013.4 |
| 20260510100020 | 6 | 287 | 11.3 | 14.5 | 0.00 | 0.23 | 0.00 | 81 | 1013.3 |
| 20260510094527 | 6 | 298 | 12.9 | 17.7 | 0.00 | 0.23 | 0.00 | 80 | 1012.8 |
| 20260510093013 | 6 | 304 | 11.3 | 17.7 | 0.00 | 0.23 | 0.00 | 81 | 1012.5 |
| 20260510091509 | 6 | 328 | 11.3 | 16.1 | 0.00 | 0.23 | 0.00 | 81 | 1012.1 |
| 20260510090008 | 6 | 318 | 11.3 | 14.5 | 0.00 | 0.23 | 0.00 | 79 | 1011.9 |
| 20260510084505 | 6 | 348 | 11.3 | 14.5 | 0.00 | 0.23 | 0.00 | 80 | 1011.7 |
| 20260510083002 | 6 | 340 | 14.5 | 17.7 | 0.00 | 0.23 | 0.00 | 79 | 1011.4 |
| 20260510081501 | 6 | 9 | 19.3 | 22.5 | 0.00 | 0.23 | 0.00 | 74 | 1011.2 |
| 20260510080105 | 7 | 19 | 16.1 | 19.3 | 0.00 | 0.23 | 0.00 | 80 | 1011.1 |
| 20260510074657 | 6 | 28 | 4.8 | 14.5 | 0.00 | 0.23 | 0.00 | 78 | 1010.8 |
| 20260510073039 | 6 | 139 | 0.0 | 4.8 | 0.00 | 0.23 | 0.00 | 77 | 1010.6 |
| 20260510071525 | 7 | 28 | 4.8 | 24.1 | 0.00 | 0.23 | 0.00 | 76 | 1010.5 |
| 20260510070028 | 7 | 37 | 19.3 | 25.7 | 0.00 | 0.23 | 0.00 | 73 | 1010.3 |
| 20260510064521 | 7 | 34 | 17.7 | 20.9 | 0.00 | 0.23 | 0.00 | 77 | 1010.2 |
| 20260510063021 | 7 | 22 | 20.9 | 29.0 | 0.00 | 0.23 | 0.00 | 77 | 1010.2 |
| 20260510061519 | 7 | 21 | 22.5 | 27.4 | 0.00 | 0.23 | 0.00 | 77 | 1010.1 |
| 20260510060032 | 7 | 19 | 27.4 | 33.8 | 0.00 | 0.23 | 0.00 | 75 | 1010.0 |
| 20260510054518 | 7 | 20 | 25.7 | 32.2 | 0.00 | 0.23 | 0.00 | 77 | 1010.0 |
| 20260510053012 | 7 | 21 | 29.0 | 33.8 | 0.00 | 0.23 | 0.00 | 75 | 1009.9 |
| 20260510051510 | 7 | 19 | 29.0 | 35.4 | 0.00 | 0.23 | 0.00 | 74 | 1009.7 |
| 20260510050007 | 7 | 26 | 29.0 | 33.8 | 0.00 | 0.23 | 0.00 | 78 | 1009.4 |
| 20260510044505 | 7 | 19 | 27.4 | 32.2 | 0.00 | 0.23 | 0.00 | 80 | 1009.1 |
| 20260510043002 | 7 | 25 | 30.6 | 35.4 | 0.00 | 0.23 | 0.00 | 78 | 1009.1 |
| 20260510041609 | 8 | 29 | 27.4 | 32.2 | 0.00 | 0.23 | 0.00 | 77 | 1008.9 |
| 20260510040104 | 8 | 28 | 25.7 | 33.8 | 0.00 | 0.23 | 0.00 | 76 | 1008.7 |
| 20260510034552 | 8 | 356 | 29.0 | 35.4 | 0.00 | 0.23 | 0.23 | 74 | 1008.5 |
| 20260510033056 | 10 | 29 | 20.9 | 22.5 | 0.00 | 0.23 | 0.23 | 69 | 1008.1 |
| 20260510031551 | 10 | 35 | 14.5 | 17.7 | 0.00 | 0.23 | 0.23 | 70 | 1007.5 |
| 20260510030048 | 10 | 39 | 14.5 | 16.1 | 0.00 | 0.23 | 0.23 | 73 | 1007.5 |
| 20260510024547 | 10 | 19 | 12.9 | 16.1 | 0.00 | 0.23 | 0.23 | 74 | 1007.4 |
| 20260510023046 | 10 | 12 | 11.3 | 14.5 | 0.00 | 0.23 | 0.23 | 77 | 1007.0 |
| 20260510021636 | 10 | 28 | 14.5 | 17.7 | 0.00 | 0.23 | 0.23 | 74 | 1006.5 |
| 20260510020044 | 10 | 39 | 9.7 | 12.9 | 0.00 | 0.23 | 0.23 | 78 | 1006.2 |
| 20260510014553 | 10 | 39 | 12.9 | 14.5 | 0.00 | 0.23 | 0.23 | 81 | 1005.9 |
| 20260510013056 | 10 | 39 | 11.3 | 14.5 | 0.00 | 0.23 | 0.23 | 84 | 1005.6 |
| 20260510011543 | 9 | 40 | 16.1 | 17.7 | 0.00 | 0.23 | 0.23 | 82 | 1005.1 |
| 20260510010052 | 9 | 32 | 16.1 | 22.5 | 0.00 | 0.23 | 0.23 | 81 | 1005.1 |
| 20260510004541 | 10 | 35 | 22.5 | 27.4 | 0.00 | 0.23 | 0.23 | 75 | 1004.8 |
| 20260510003040 | 11 | 13 | 12.9 | 17.7 | 0.00 | 0.23 | 0.23 | 71 | 1004.5 |
| 20260510001540 | 12 | 342 | 9.7 | 14.5 | 0.00 | 0.23 | 0.23 | 70 | 1004.1 |
| 20260510000039 | 12 | 233 | 0.0 | 0.0 | 0.00 | 0.23 | 0.23 | 70 | 1003.5 |
| 20260509234539 | 12 | 233 | 0.0 | 1.6 | 0.00 | 0.23 | 0.23 | 70 | 1003.2 |
| 20260509233038 | 12 | 232 | 0.0 | 0.0 | 0.00 | 0.23 | 0.23 | 71 | 1002.8 |
| 20260509231537 | 11 | 233 | 0.0 | 0.0 | 0.00 | 0.23 | 0.23 | 73 | 1002.6 |
| 20260509230041 | 11 | 236 | 0.0 | 3.2 | 0.00 | 0.23 | 0.23 | 77 | 1002.5 |
| 20260509224537 | 11 | 346 | 0.0 | 3.2 | 0.00 | 0.23 | 0.23 | 74 | 1002.2 |
| 20260509223038 | 12 | 233 | 6.4 | 8.0 | 0.00 | 0.23 | 0.23 | 73 | 1001.8 |
| 20260509221538 | 12 | 236 | 6.4 | 8.0 | 0.00 | 0.23 | 0.23 | 74 | 1001.6 |
| 20260509220034 | 12 | 253 | 8.0 | 11.3 | 0.00 | 0.23 | 0.23 | 76 | 1001.3 |
| 20260509214537 | 13 | 239 | 14.5 | 17.7 | 0.00 | 0.23 | 0.23 | 75 | 1000.9 |
| 20260509213035 | 13 | 248 | 12.9 | 20.9 | 0.00 | 0.23 | 0.23 | 75 | 1000.8 |
| 20260509211530 | 14 | 236 | 16.1 | 20.9 | 0.00 | 0.23 | 0.23 | 76 | 1001.1 |
| 20260509210035 | 15 | 228 | 14.5 | 17.7 | 0.00 | 0.23 | 0.23 | 80 | 1001.3 |
| 20260509204529 | 13 | 239 | 9.7 | 17.7 | 0.00 | 0.23 | 0.23 | 92 | 1000.9 |
| 20260509203028 | 12 | 111 | 9.7 | 19.3 | 0.03 | 0.23 | 0.23 | 86 | 1000.9 |
| 20260509201527 | 12 | 149 | 1.6 | 11.3 | 0.23 | 0.23 | 0.23 | 73 | 1001.0 |
| 20260509200026 | 11 | 232 | 6.4 | 16.1 | 0.23 | 0.23 | 0.23 | 75 | 1001.2 |
| 20260509194537 | 10 | 225 | 3.2 | 11.3 | 0.23 | 0.23 | 0.23 | 83 | 1001.3 |
| 20260509193025 | 10 | 231 | 32.2 | 75.6 | 0.20 | 0.20 | 0.20 | 91 | 1002.0 |
| 20260509191522 | 16 | 153 | 6.4 | 22.5 | 0.00 | 0.00 | 0.00 | 66 | 1000.2 |
| 20260509190025 | 17 | 235 | 11.3 | 35.4 | 0.00 | 0.00 | 0.00 | 60 | 1000.0 |
| 20260509184522 | 18 | 239 | 8.0 | 24.1 | 0.00 | 0.00 | 0.00 | 56 | 1000.2 |
| 20260509183019 | 18 | 250 | 6.4 | 29.0 | 0.00 | 0.00 | 0.00 | 53 | 1000.2 |
| 20260509181516 | 18 | 150 | 6.4 | 20.9 | 0.00 | 0.00 | 0.00 | 57 | 1000.2 |
| 20260509180013 | 17 | 229 | 12.9 | 17.7 | 0.00 | 0.00 | 0.00 | 61 | 1000.4 |
| 20260509174514 | 17 | 245 | 12.9 | 27.4 | 0.00 | 0.00 | 0.00 | 62 | 1000.7 |
| 20260509173012 | 17 | 139 | 6.4 | 20.9 | 0.00 | 0.00 | 0.00 | 64 | 1001.0 |
| 20260509171509 | 17 | 233 | 4.8 | 16.1 | 0.00 | 0.00 | 0.00 | 62 | 1001.2 |
| 20260509170011 | 17 | 264 | 4.8 | 17.7 | 0.00 | 0.00 | 0.00 | 64 | 1001.0 |
| 20260509164511 | 18 | 273 | 8.0 | 16.1 | 0.00 | 0.00 | 0.00 | 63 | 1000.8 |
| 20260509163003 | 17 | 103 | 1.6 | 14.5 | 0.00 | 0.00 | 0.00 | 69 | 1001.0 |
| 20260509161606 | 16 | 152 | 1.6 | 11.3 | 0.00 | 0.00 | 0.00 | 71 | 1001.7 |
| 20260509160101 | 16 | 219 | 3.2 | 14.5 | 0.00 | 0.00 | 0.00 | 75 | 1002.0 |
| 20260509154554 | 15 | 193 | 1.6 | 8.0 | 0.00 | 0.00 | 0.00 | 78 | 1002.2 |
| 20260509153058 | 15 | 143 | 0.0 | 4.8 | 0.00 | 0.00 | 0.00 | 80 | 1002.6 |
| 20260509151546 | 14 | 242 | 1.6 | 12.9 | 0.00 | 0.00 | 0.00 | 79 | 1003.8 |
| 20260509150045 | 13 | 225 | 1.6 | 14.5 | 0.00 | 0.00 | 0.00 | 79 | 1004.2 |
| 20260509144549 | 13 | 212 | 6.4 | 11.3 | 0.00 | 0.00 | 0.00 | 78 | 1004.0 |
| 20260509143043 | 14 | 193 | 4.8 | 14.5 | 0.00 | 0.00 | 0.00 | 78 | 1003.7 |
| 20260509141543 | 13 | 253 | 3.2 | 12.9 | 0.00 | 0.00 | 0.00 | 80 | 1003.5 |
| 20260509140053 | 13 | 259 | 4.8 | 12.9 | 0.00 | 0.00 | 0.00 | 83 | 1003.7 |
| 20260509134535 | 12 | 194 | 3.2 | 11.3 | 0.00 | 0.00 | 0.00 | 86 | 1003.4 |
| 20260509133037 | 12 | 106 | 3.2 | 9.7 | 0.00 | 0.00 | 0.00 | 86 | 1003.5 |
| 20260509131528 | 12 | 257 | 3.2 | 8.0 | 0.00 | 0.00 | 0.00 | 90 | 1003.8 |